Brownhills, United Kingdom
Current Conditions -  °F | °C
As of 10:20 AM on Wednesday 26 Nov 2014 (Local Time) from EGBB Reporting Station
Haze Haze  
Wind Chill: 41°   Ceiling: 300
Heat Index: 45°   Visibility: 1.8mi
Dew Point: 45°   Wind: 6mph
Humidity: 100%   Direction: 10°N
Pressure: 29.88"   Gusts: NA
Location:  52.63°N, 1.93°W
Report Text: EGBB 261020Z 01005KT 340V050 3000 BR OVC003 07/07 Q1012
Loading
Personal Weather Stations






























Interactive Weather Map New forecast layout! Learn more

10-Day Weather Forecast

Advertisements
Track Severe Weather on mobile